Time;durP1;ratioP1;P1;durP2;ratioP2;P2;SDS_P1;SDS_P2;PMS_P1;PMS_P2;Temp;Humidity;BMP_temperature;BMP_pressure;BME280_temperature;BME280_humidity;BME280_pressure;Samples;Min_cycle;Max_cycle;Signal;HPM_P1;HPM_P2
2023/04/13 00:01:24;;;;;;;3.38;0.88;;;;;;;6.04;100.00;99313.56;5074704;28;20044;-53
2023/04/13 00:03:52;;;;;;;1.20;0.75;;;;;;;6.06;100.00;99325.56;5074910;28;20047;-51
2023/04/13 00:06:21;;;;;;;3.22;0.98;;;;;;;6.04;100.00;99317.03;5074403;28;20048;-54
2023/04/13 00:08:49;;;;;;;4.45;0.85;;;;;;;6.02;100.00;99313.69;5073803;28;20127;-53
2023/04/13 00:11:18;;;;;;;3.53;0.90;;;;;;;6.01;100.00;99305.97;5070135;28;20110;-54
2023/04/13 00:13:47;;;;;;;3.67;1.10;;;;;;;5.95;100.00;99306.38;5070622;28;20110;-53
2023/04/13 00:16:16;;;;;;;2.85;1.00;;;;;;;5.92;100.00;99297.00;5072564;28;20094;-49
2023/04/13 00:18:45;;;;;;;4.20;1.00;;;;;;;5.89;100.00;99297.19;5072947;28;20450;-53
2023/04/13 00:21:15;;;;;;;3.55;0.95;;;;;;;5.92;100.00;99304.81;5071947;28;20052;-50
2023/04/13 00:23:44;;;;;;;4.00;0.90;;;;;;;5.96;100.00;99293.22;5070601;28;20052;-53
2023/04/13 00:26:12;;;;;;;8.68;1.10;;;;;;;5.99;100.00;99292.22;5071780;28;20513;-53
2023/04/13 00:28:41;;;;;;;4.10;0.90;;;;;;;5.91;100.00;99290.91;5070088;28;20048;-54
2023/04/13 00:31:11;;;;;;;2.25;0.90;;;;;;;5.91;100.00;99298.75;5070370;28;20532;-53
2023/04/13 00:33:40;;;;;;;1.77;1.02;;;;;;;5.89;100.00;99278.91;5069163;28;20139;-53
2023/04/13 00:36:09;;;;;;;3.42;0.73;;;;;;;5.90;100.00;99284.06;5071161;28;20063;-52
2023/04/13 00:38:37;;;;;;;3.35;1.00;;;;;;;5.90;100.00;99278.84;5072958;28;20120;-53
2023/04/13 00:41:06;;;;;;;3.88;0.93;;;;;;;5.96;100.00;99281.94;5073497;28;20410;-52
2023/04/13 00:43:34;;;;;;;2.45;0.80;;;;;;;5.88;100.00;99274.66;5073818;28;20090;-56
2023/04/13 00:46:03;;;;;;;3.05;0.95;;;;;;;5.86;100.00;99269.56;5071367;28;20048;-57
2023/04/13 00:48:33;;;;;;;4.80;1.00;;;;;;;5.84;100.00;99268.00;5071663;28;20041;-56
2023/04/13 00:51:02;;;;;;;3.83;1.17;;;;;;;5.82;100.00;99264.66;5071367;28;20526;-57
2023/04/13 00:53:32;;;;;;;3.58;1.23;;;;;;;5.80;100.00;99262.16;5070262;28;20044;-57
2023/04/13 00:56:02;;;;;;;2.08;0.95;;;;;;;5.82;100.00;99259.44;5073232;28;20098;-57
2023/04/13 00:58:31;;;;;;;1.52;0.95;;;;;;;5.79;100.00;99254.44;5067214;28;20045;-57
2023/04/13 01:00:59;;;;;;;2.83;1.08;;;;;;;5.76;100.00;99258.91;5070506;28;20047;-58
2023/04/13 01:03:27;;;;;;;3.63;1.10;;;;;;;5.75;100.00;99248.59;5072601;28;20044;-57
2023/04/13 01:06:10;;;;;;;3.03;0.95;;;;;;;5.78;100.00;99255.38;5071965;28;20054;-57
2023/04/13 01:08:44;;;;;;;5.05;1.20;;;;;;;5.75;100.00;99251.19;5070010;28;20511;-57
2023/04/13 01:11:18;;;;;;;5.35;1.35;;;;;;;5.71;100.00;99250.59;5069032;28;20403;-56
2023/04/13 01:13:51;;;;;;;2.63;1.10;;;;;;;5.73;100.00;99240.88;5069074;28;20131;-56
2023/04/13 01:16:21;;;;;;;5.35;1.13;;;;;;;5.71;100.00;99244.53;5070136;28;20048;-56
2023/04/13 01:18:53;;;;;;;3.83;1.33;;;;;;;5.73;100.00;99237.44;5070235;28;20316;-56
2023/04/13 01:21:29;;;;;;;3.08;1.10;;;;;;;5.77;100.00;99238.91;5070043;28;20094;-55
2023/04/13 01:24:08;;;;;;;4.53;1.13;;;;;;;5.73;100.00;99240.06;5071440;28;20060;-55
2023/04/13 01:26:49;;;;;;;3.28;1.23;;;;;;;5.73;100.00;99227.84;5072322;28;20044;-56
2023/04/13 01:29:19;;;;;;;5.32;1.20;;;;;;;5.66;100.00;99233.56;5069143;28;20048;-56
2023/04/13 01:31:48;;;;;;;7.00;1.40;;;;;;;5.65;100.00;99222.31;5069535;28;20064;-57
2023/04/13 01:34:17;;;;;;;3.40;1.13;;;;;;;5.64;100.00;99219.81;5071168;28;20044;-57
2023/04/13 01:36:46;;;;;;;3.65;1.10;;;;;;;5.65;100.00;99235.38;5071716;28;20530;-57
2023/04/13 01:39:18;;;;;;;3.97;1.00;;;;;;;5.68;100.00;99219.50;5069053;28;20395;-56
2023/04/13 01:41:46;;;;;;;4.60;1.23;;;;;;;5.74;100.00;99226.06;5068777;28;20052;-56
2023/04/13 01:44:15;;;;;;;3.80;1.17;;;;;;;5.75;100.00;99225.13;5069289;28;20061;-57
2023/04/13 01:46:53;;;;;;;4.95;1.27;;;;;;;5.72;100.00;99227.94;5067735;28;20515;-57
2023/04/13 01:49:23;;;;;;;3.20;1.23;;;;;;;5.76;100.00;99217.16;5068226;28;20298;-57
2023/04/13 01:51:53;;;;;;;6.55;1.65;;;;;;;5.77;100.00;99220.63;5069638;28;20048;-56
2023/04/13 01:54:27;;;;;;;3.78;1.20;;;;;;;5.79;100.00;99221.34;5070305;28;20508;-57
2023/04/13 01:56:58;;;;;;;5.03;1.35;;;;;;;5.86;100.00;99237.41;5069493;28;20045;-56
2023/04/13 01:59:30;;;;;;;5.40;1.48;;;;;;;5.81;100.00;99229.91;5072130;28;20067;-56
2023/04/13 02:02:00;;;;;;;4.10;1.20;;;;;;;5.79;100.00;99226.56;5071375;28;20041;-57
2023/04/13 02:04:28;;;;;;;6.20;1.50;;;;;;;5.82;100.00;99244.63;5069179;28;20119;-56
2023/04/13 02:06:57;;;;;;;3.90;1.63;;;;;;;5.81;100.00;99234.28;5066597;28;20052;-57
2023/04/13 02:09:27;;;;;;;4.65;1.23;;;;;;;5.82;100.00;99241.16;5069083;28;20377;-57
2023/04/13 02:11:55;;;;;;;4.03;1.15;;;;;;;5.84;100.00;99254.94;5067178;28;20049;-57
2023/04/13 02:14:24;;;;;;;5.18;1.20;;;;;;;5.85;100.00;99249.63;5068192;28;20102;-56
2023/04/13 02:16:52;;;;;;;3.10;1.38;;;;;;;5.86;100.00;99243.47;5070079;28;20037;-56
2023/04/13 02:19:22;;;;;;;3.55;1.10;;;;;;;5.89;100.00;99251.06;5071706;28;20051;-53
2023/04/13 02:21:53;;;;;;;3.45;1.52;;;;;;;5.91;100.00;99248.34;5070509;28;20032;-56
2023/04/13 02:24:21;;;;;;;7.88;1.48;;;;;;;5.88;100.00;99251.19;5069115;28;20517;-53
2023/04/13 02:26:49;;;;;;;6.22;1.63;;;;;;;5.87;100.00;99246.91;5069273;28;20511;-54
2023/04/13 02:29:17;;;;;;;4.72;1.55;;;;;;;5.85;100.00;99257.44;5069319;28;20114;-53
2023/04/13 02:31:45;;;;;;;6.55;1.75;;;;;;;5.85;100.00;99260.06;5070618;28;20467;-52
2023/04/13 02:34:23;;;;;;;3.50;1.10;;;;;;;5.88;100.00;99259.00;5088164;27;20619;-52
2023/04/13 02:36:52;;;;;;;5.70;1.23;;;;;;;5.91;100.00;99259.59;5088133;28;20525;-51
2023/04/13 02:39:20;;;;;;;6.65;1.27;;;;;;;5.97;100.00;99255.75;5085508;28;20055;-53
2023/04/13 02:41:48;;;;;;;4.65;1.08;;;;;;;5.96;100.00;99267.13;5083896;28;20132;-53
2023/04/13 02:44:16;;;;;;;3.10;1.08;;;;;;;5.98;100.00;99261.81;5084523;28;20131;-55
2023/04/13 02:46:44;;;;;;;3.53;1.00;;;;;;;6.05;100.00;99283.94;5084560;28;20052;-53
2023/04/13 02:49:13;;;;;;;4.18;1.10;;;;;;;6.05;100.00;99290.00;5088140;28;20127;-51
2023/04/13 02:51:42;;;;;;;5.25;0.95;;;;;;;6.08;100.00;99283.69;5088604;28;20052;-57
2023/04/13 02:54:11;;;;;;;3.22;0.80;;;;;;;6.01;100.00;99295.53;5083959;28;20044;-57
2023/04/13 02:56:39;;;;;;;7.57;1.70;;;;;;;6.01;100.00;99293.78;5083929;28;20135;-57
2023/04/13 02:59:07;;;;;;;2.85;0.98;;;;;;;6.11;100.00;99298.31;5085114;28;20097;-58
2023/04/13 03:01:36;;;;;;;1.90;1.00;;;;;;;6.04;100.00;99314.44;5085080;28;20044;-58
2023/04/13 03:04:05;;;;;;;3.97;0.90;;;;;;;6.01;100.00;99309.44;5086265;28;20066;-57
2023/04/13 03:06:34;;;;;;;3.00;0.90;;;;;;;6.02;100.00;99323.31;5084723;28;20060;-57
2023/04/13 03:09:04;;;;;;;4.40;1.08;;;;;;;6.02;100.00;99324.13;5085173;28;20044;-57
2023/04/13 03:11:32;;;;;;;3.97;1.10;;;;;;;6.01;100.00;99334.69;5084012;28;20036;-57
2023/04/13 03:14:00;;;;;;;2.30;1.00;;;;;;;6.03;100.00;99335.41;5083827;28;20067;-52
2023/04/13 03:16:29;;;;;;;4.07;1.00;;;;;;;5.96;100.00;99341.97;5084286;28;20072;-57
2023/04/13 03:18:57;;;;;;;4.85;1.10;;;;;;;5.90;100.00;99338.84;5086343;28;20062;-57
2023/04/13 03:21:25;;;;;;;3.00;1.15;;;;;;;5.87;100.00;99341.66;5084181;28;20045;-58
2023/04/13 03:23:53;;;;;;;4.35;1.42;;;;;;;5.85;100.00;99347.91;5084745;28;20048;-58
2023/04/13 03:26:24;;;;;;;4.00;1.02;;;;;;;5.84;100.00;99348.88;5086603;28;20098;-57
2023/04/13 03:28:52;;;;;;;4.90;1.50;;;;;;;5.80;100.00;99353.47;5081718;28;20090;-57
2023/04/13 03:31:21;;;;;;;4.03;1.20;;;;;;;5.81;100.00;99367.34;5085511;28;20102;-57
2023/04/13 03:33:49;;;;;;;6.55;1.52;;;;;;;5.73;100.00;99368.69;5085624;28;20051;-58
2023/04/13 03:36:18;;;;;;;3.92;1.20;;;;;;;5.71;100.00;99374.97;5086394;28;20484;-57
2023/04/13 03:38:46;;;;;;;3.50;1.30;;;;;;;5.65;100.00;99381.44;5085604;28;20036;-58
2023/04/13 03:41:14;;;;;;;4.82;1.40;;;;;;;5.62;100.00;99386.00;5084392;28;20055;-57
2023/04/13 03:43:43;;;;;;;4.53;1.38;;;;;;;5.62;100.00;99386.88;5084296;28;20746;-58
2023/04/13 03:46:15;;;;;;;4.65;1.50;;;;;;;5.57;100.00;99399.38;5069528;28;20097;-58
2023/04/13 03:48:43;;;;;;;2.85;1.40;;;;;;;5.54;100.00;99394.38;5069684;28;20048;-57
2023/04/13 03:51:11;;;;;;;5.88;1.65;;;;;;;5.53;100.00;99387.47;5070512;28;20040;-58
2023/04/13 03:53:39;;;;;;;4.38;1.50;;;;;;;5.47;100.00;99403.53;5070055;28;20442;-58
2023/04/13 03:56:08;;;;;;;5.30;1.30;;;;;;;5.46;100.00;99400.09;5072850;28;20047;-57
2023/04/13 03:58:40;;;;;;;7.30;1.75;;;;;;;5.44;100.00;99409.81;5070058;28;20532;-57
2023/04/13 04:01:12;;;;;;;6.40;2.17;;;;;;;5.45;100.00;99408.84;5070831;28;20403;-57
2023/04/13 04:03:43;;;;;;;3.00;1.42;;;;;;;5.42;100.00;99422.09;5069485;28;20396;-57
2023/04/13 04:06:12;;;;;;;4.32;1.40;;;;;;;5.36;100.00;99418.13;5068309;28;20056;-53
2023/04/13 04:08:40;;;;;;;3.25;1.52;;;;;;;5.35;100.00;99426.06;5069931;28;20052;-52
2023/04/13 04:11:08;;;;;;;3.47;1.60;;;;;;;5.35;100.00;99426.88;5070923;28;20400;-53
2023/04/13 04:13:36;;;;;;;5.22;1.40;;;;;;;5.28;100.00;99430.00;5071758;28;20044;-54
2023/04/13 04:16:10;;;;;;;5.57;1.50;;;;;;;5.27;100.00;99438.75;5073214;28;20075;-53
2023/04/13 04:18:40;;;;;;;5.20;1.35;;;;;;;5.23;100.00;99438.94;5072812;28;20483;-51
2023/04/13 04:21:08;;;;;;;5.43;1.60;;;;;;;5.26;100.00;99437.91;5071675;28;20040;-54
2023/04/13 04:23:36;;;;;;;3.13;1.35;;;;;;;5.26;100.00;99443.13;5069795;28;20098;-56
2023/04/13 04:26:05;;;;;;;6.60;1.80;;;;;;;5.22;100.00;99450.31;5068186;28;20041;-53
2023/04/13 04:28:37;;;;;;;6.40;1.70;;;;;;;5.22;100.00;99442.50;5069211;28;20084;-52
2023/04/13 04:31:09;;;;;;;6.82;1.63;;;;;;;5.28;100.00;99445.66;5072030;28;20045;-55
2023/04/13 04:33:39;;;;;;;3.13;1.20;;;;;;;5.28;100.00;99443.03;5070505;28;20041;-53
2023/04/13 04:36:08;;;;;;;6.65;1.90;;;;;;;5.28;100.00;99456.91;5069235;28;20049;-53
2023/04/13 04:38:37;;;;;;;5.05;1.48;;;;;;;5.27;100.00;99454.41;5068073;28;20131;-54
2023/04/13 04:41:07;;;;;;;8.10;1.80;;;;;;;5.24;100.00;99453.66;5068974;28;20541;-53
2023/04/13 04:43:36;;;;;;;3.63;1.50;;;;;;;5.24;100.00;99461.47;5071188;28;20278;-53
2023/04/13 04:46:06;;;;;;;7.10;1.75;;;;;;;5.26;100.00;99461.38;5071350;28;20040;-54
2023/04/13 04:48:36;;;;;;;6.25;1.90;;;;;;;5.22;100.00;99467.72;5070258;28;20048;-53
2023/04/13 04:51:07;;;;;;;5.80;2.40;;;;;;;5.22;100.00;99465.97;5071535;28;20041;-53
2023/04/13 04:53:35;;;;;;;5.28;2.08;;;;;;;5.21;100.00;99469.50;5072624;28;20051;-53
2023/04/13 04:56:04;;;;;;;6.20;2.88;;;;;;;5.30;100.00;99477.66;5068999;28;20102;-54
2023/04/13 04:58:35;;;;;;;7.18;2.90;;;;;;;5.29;100.00;99489.00;5071048;28;20056;-53
2023/04/13 05:01:03;;;;;;;8.07;2.90;;;;;;;5.31;100.00;99487.97;5071037;28;20131;-58
2023/04/13 05:03:31;;;;;;;6.88;3.13;;;;;;;5.34;100.00;99499.97;5071061;28;20561;-59
2023/04/13 05:06:01;;;;;;;8.73;3.65;;;;;;;5.31;100.00;99505.41;5071239;28;20079;-57
2023/04/13 05:08:30;;;;;;;9.85;4.22;;;;;;;5.35;100.00;99504.28;5071217;28;20056;-58
2023/04/13 05:10:59;;;;;;;11.27;4.13;;;;;;;5.36;100.00;99505.94;5073766;28;20045;-57
2023/04/13 05:13:27;;;;;;;10.48;4.28;;;;;;;5.38;100.00;99506.66;5072408;28;20131;-57
2023/04/13 05:15:55;;;;;;;9.43;4.38;;;;;;;5.41;100.00;99503.84;5070270;28;20048;-58
2023/04/13 05:18:24;;;;;;;10.98;4.95;;;;;;;5.41;100.00;99509.06;5072382;28;20041;-58
2023/04/13 05:20:52;;;;;;;11.32;4.78;;;;;;;5.42;100.00;99508.16;5073253;28;20048;-58
2023/04/13 05:23:20;;;;;;;11.15;4.95;;;;;;;5.44;100.00;99513.25;5070553;28;20076;-58
2023/04/13 05:25:51;;;;;;;14.30;5.72;;;;;;;5.46;100.00;99522.66;5069671;28;20037;-58
2023/04/13 05:28:20;;;;;;;13.75;5.20;;;;;;;5.47;100.00;99529.56;5070251;28;20114;-55
2023/04/13 05:30:49;;;;;;;9.13;4.78;;;;;;;5.50;100.00;99528.53;5071841;28;20054;-58
2023/04/13 05:33:17;;;;;;;9.25;4.85;;;;;;;5.52;100.00;99531.84;5070739;28;20476;-58
2023/04/13 05:35:45;;;;;;;13.05;5.25;;;;;;;5.53;100.00;99550.00;5070162;28;20471;-58
2023/04/13 05:38:13;;;;;;;12.93;5.50;;;;;;;5.65;100.00;99543.16;5070640;28;20045;-58
2023/04/13 05:40:41;;;;;;;10.95;5.07;;;;;;;5.67;100.00;99551.75;5068974;28;20071;-58
2023/04/13 05:43:12;;;;;;;16.10;5.47;;;;;;;5.68;100.00;99549.94;5070570;28;20139;-58
2023/04/13 05:45:40;;;;;;;13.18;5.53;;;;;;;5.69;100.00;99538.59;5069791;28;20115;-58
2023/04/13 05:48:08;;;;;;;12.90;5.75;;;;;;;5.71;100.00;99548.00;5070070;28;20102;-58
2023/04/13 05:50:36;;;;;;;13.60;5.45;;;;;;;5.74;100.00;99555.59;5070663;28;20087;-58
2023/04/13 05:53:05;;;;;;;11.93;5.57;;;;;;;5.79;100.00;99560.50;5069243;28;20492;-58
2023/04/13 05:55:33;;;;;;;13.05;5.35;;;;;;;5.80;100.00;99571.81;5069583;28;20045;-58
2023/04/13 05:58:02;;;;;;;15.23;5.40;;;;;;;5.85;100.00;99573.16;5071809;28;20059;-58
2023/04/13 06:00:33;;;;;;;10.63;5.22;;;;;;;5.89;100.00;99572.03;5072747;28;20411;-58
2023/04/13 06:03:01;;;;;;;10.95;4.75;;;;;;;5.93;100.00;99583.09;5072907;28;20127;-59
2023/04/13 06:05:31;;;;;;;14.52;5.13;;;;;;;6.02;100.00;99579.91;5071710;28;20111;-59
2023/04/13 06:07:59;;;;;;;11.73;4.97;;;;;;;6.08;100.00;99587.34;5068592;28;20048;-59
2023/04/13 06:10:28;;;;;;;10.90;4.55;;;;;;;6.14;100.00;99593.09;5069677;28;20794;-59
2023/04/13 06:12:56;;;;;;;12.20;5.15;;;;;;;6.19;100.00;99602.28;5069863;28;20082;-58
2023/04/13 06:15:24;;;;;;;11.38;4.65;;;;;;;6.24;100.00;99612.41;5072368;28;20037;-59
2023/04/13 06:17:54;;;;;;;10.95;4.25;;;;;;;6.23;100.00;99618.56;5071384;28;20143;-59
2023/04/13 06:20:22;;;;;;;10.23;4.25;;;;;;;6.24;100.00;99620.25;5071015;28;20063;-56
2023/04/13 06:22:50;;;;;;;12.63;4.68;;;;;;;6.23;100.00;99616.81;5069338;28;20074;-56
2023/04/13 06:25:19;;;;;;;10.50;4.75;;;;;;;6.31;100.00;99620.69;5071920;28;20110;-59
2023/04/13 06:27:48;;;;;;;14.05;4.78;;;;;;;6.28;100.00;99613.88;5072037;28;20079;-59
2023/04/13 06:30:17;;;;;;;11.95;5.15;;;;;;;6.26;100.00;99628.84;5069892;28;20128;-59
2023/04/13 06:32:46;;;;;;;11.27;5.00;;;;;;;6.25;100.00;99625.38;5071109;28;20043;-58
2023/04/13 06:35:16;;;;;;;13.07;5.18;;;;;;;6.28;100.00;99626.13;5072365;28;20098;-59
2023/04/13 06:37:44;;;;;;;13.05;5.60;;;;;;;6.32;100.00;99625.81;5072346;28;20048;-56
2023/04/13 06:40:14;;;;;;;17.58;5.50;;;;;;;6.35;100.00;99627.38;5072461;28;20462;-54
2023/04/13 06:42:43;;;;;;;13.32;5.70;;;;;;;6.32;100.00;99645.88;5072213;28;20052;-54
2023/04/13 06:45:12;;;;;;;12.45;5.75;;;;;;;6.29;100.00;99649.50;5072128;28;20123;-57
2023/04/13 06:47:40;;;;;;;11.13;5.60;;;;;;;6.29;100.00;99651.31;5070697;28;20040;-57
2023/04/13 06:50:14;;;;;;;10.77;5.20;;;;;;;6.25;100.00;99656.69;5069247;28;20052;-57
2023/04/13 06:52:45;;;;;;;11.25;5.20;;;;;;;6.26;100.00;99657.56;5069302;28;20053;-58
2023/04/13 06:55:13;;;;;;;9.30;5.03;;;;;;;6.33;100.00;99663.22;5069373;28;20072;-58
2023/04/13 06:57:42;;;;;;;7.85;4.20;;;;;;;6.41;100.00;99669.59;5070492;28;20044;-58
2023/04/13 07:00:13;;;;;;;8.07;4.35;;;;;;;6.41;100.00;99676.59;5069046;28;20750;-58
2023/04/13 07:02:55;;;;;;;8.13;4.55;;;;;;;6.35;100.00;99684.81;5069191;28;20127;-57
2023/04/13 07:05:24;;;;;;;8.93;4.22;;;;;;;6.31;100.00;99686.78;5072022;28;20102;-57
2023/04/13 07:07:53;;;;;;;8.25;3.75;;;;;;;6.29;100.00;99686.06;5070707;28;20056;-54
2023/04/13 07:10:21;;;;;;;9.32;3.35;;;;;;;6.28;100.00;99697.44;5068167;28;20054;-53
2023/04/13 07:12:49;;;;;;;6.80;3.05;;;;;;;6.24;100.00;99703.81;5070865;28;20036;-53
2023/04/13 07:15:17;;;;;;;7.10;2.58;;;;;;;6.26;100.00;99704.56;5072164;28;20036;-57
2023/04/13 07:17:46;;;;;;;4.82;2.00;;;;;;;6.28;100.00;99696.63;5070668;28;20051;-57
2023/04/13 07:20:14;;;;;;;8.10;2.85;;;;;;;6.34;100.00;99704.03;5073524;28;20452;-58
2023/04/13 07:22:42;;;;;;;4.68;2.38;;;;;;;6.41;100.00;99705.34;5071639;28;20189;-58
2023/04/13 07:25:12;;;;;;;6.80;3.35;;;;;;;6.44;100.00;99712.97;5072139;28;20079;-58
2023/04/13 07:27:40;;;;;;;7.35;3.50;;;;;;;6.43;100.00;99725.19;5072381;28;20392;-58
2023/04/13 07:30:09;;;;;;;10.10;4.18;;;;;;;6.39;100.00;99720.25;5072108;28;20126;-57
2023/04/13 07:32:37;;;;;;;9.82;4.03;;;;;;;6.44;100.00;99726.00;5072808;28;20051;-58
2023/04/13 07:35:06;;;;;;;8.32;4.35;;;;;;;6.48;100.00;99731.88;5071126;28;20048;-58
2023/04/13 07:37:34;;;;;;;11.90;5.10;;;;;;;6.40;100.00;99733.19;5074147;28;20070;-54
2023/04/13 07:40:03;;;;;;;9.40;4.03;;;;;;;6.45;100.00;99725.09;5070979;28;20515;-52
2023/04/13 07:42:32;;;;;;;10.93;4.50;;;;;;;6.64;100.00;99718.63;5074216;28;20117;-53
2023/04/13 07:45:00;;;;;;;8.82;3.80;;;;;;;6.70;100.00;99739.13;5075322;28;20136;-52
2023/04/13 07:47:29;;;;;;;9.65;4.00;;;;;;;6.73;100.00;99728.47;5075279;28;20488;-54
2023/04/13 07:49:57;;;;;;;11.60;3.70;;;;;;;6.77;100.00;99737.78;5072497;28;20055;-57
2023/04/13 07:52:25;;;;;;;10.00;3.63;;;;;;;6.82;100.00;99734.88;5071735;28;20484;-59
2023/04/13 07:54:53;;;;;;;9.35;3.80;;;;;;;6.88;100.00;99737.88;5071845;28;20049;-58
2023/04/13 07:57:24;;;;;;;11.40;4.20;;;;;;;6.81;100.00;99736.63;5071548;28;20128;-58
2023/04/13 07:59:54;;;;;;;10.55;3.88;;;;;;;6.94;100.00;99737.50;5072298;28;20052;-58
2023/04/13 08:02:22;;;;;;;10.13;3.67;;;;;;;7.07;100.00;99750.56;5073526;28;20049;-57
2023/04/13 08:04:51;;;;;;;8.82;3.42;;;;;;;7.15;100.00;99751.81;5073980;28;20059;-58
2023/04/13 08:07:19;;;;;;;10.50;3.55;;;;;;;7.20;100.00;99755.81;5072495;28;20044;-58
2023/04/13 08:09:48;;;;;;;7.78;3.53;;;;;;;7.24;100.00;99759.88;5072350;28;20048;-58
2023/04/13 08:12:17;;;;;;;11.70;4.00;;;;;;;7.36;100.00;99765.19;5070659;28;20044;-59
2023/04/13 08:14:45;;;;;;;9.52;4.40;;;;;;;7.49;100.00;99779.13;5071626;28;20044;-59
2023/04/13 08:17:14;;;;;;;11.80;4.28;;;;;;;7.63;100.00;99769.47;5070990;28;20475;-59
2023/04/13 08:19:42;;;;;;;9.98;3.78;;;;;;;7.70;100.00;99776.78;5071472;28;20442;-59
2023/04/13 08:22:11;;;;;;;6.88;3.75;;;;;;;7.72;100.00;99779.31;5074265;28;20050;-59
2023/04/13 08:24:39;;;;;;;9.93;3.92;;;;;;;7.71;100.00;99777.63;5074562;28;20114;-59
2023/04/13 08:27:07;;;;;;;11.23;3.60;;;;;;;7.72;100.00;99782.75;5072321;28;20457;-60
2023/04/13 08:29:35;;;;;;;10.88;3.90;;;;;;;7.81;100.00;99778.63;5073146;28;20075;-60
2023/04/13 08:32:04;;;;;;;11.85;3.70;;;;;;;7.74;100.00;99790.50;5074414;28;20053;-59
2023/04/13 08:34:33;;;;;;;9.75;4.07;;;;;;;7.84;100.00;99785.44;5073992;28;20132;-60
2023/04/13 08:37:01;;;;;;;11.30;3.90;;;;;;;8.05;100.00;99798.81;5074046;28;20044;-60
2023/04/13 08:39:30;;;;;;;10.77;3.13;;;;;;;8.17;100.00;99803.16;5073852;28;20032;-60
2023/04/13 08:41:58;;;;;;;10.63;3.28;;;;;;;8.07;100.00;99800.38;5072237;28;20500;-59
2023/04/13 08:44:27;;;;;;;9.57;3.10;;;;;;;8.07;100.00;99810.00;5073025;28;20048;-60
2023/04/13 08:46:56;;;;;;;13.13;3.92;;;;;;;8.08;100.00;99814.28;5071052;28;20118;-56
2023/04/13 08:49:26;;;;;;;13.00;3.00;;;;;;;8.04;100.00;99820.69;5072130;28;20063;-60
2023/04/13 08:51:58;;;;;;;10.70;2.72;;;;;;;8.10;100.00;99822.88;5073675;28;20079;-61
2023/04/13 08:54:27;;;;;;;13.65;2.72;;;;;;;8.12;100.00;99831.47;5072511;28;20500;-60
2023/04/13 08:56:57;;;;;;;12.60;2.75;;;;;;;8.18;100.00;99838.91;5072106;28;20048;-60
2023/04/13 08:59:29;;;;;;;13.88;2.88;;;;;;;8.18;100.00;99838.91;5071427;28;20523;-60
2023/04/13 09:02:00;;;;;;;10.93;2.47;;;;;;;8.19;100.00;99853.63;5074058;28;20044;-60
2023/04/13 09:04:35;;;;;;;9.10;2.25;;;;;;;8.22;100.00;99860.44;5074210;28;20480;-60
2023/04/13 09:07:07;;;;;;;11.75;2.75;;;;;;;8.25;100.00;99855.00;5074448;28;20150;-60
2023/04/13 09:09:38;;;;;;;10.70;2.10;;;;;;;8.29;100.00;99857.28;5074075;28;20040;-60
2023/04/13 09:12:07;;;;;;;9.20;2.42;;;;;;;8.39;100.00;99861.88;5073188;28;20048;-60
2023/04/13 09:14:37;;;;;;;11.00;2.45;;;;;;;8.44;100.00;99865.00;5072533;28;20377;-60
2023/04/13 09:17:05;;;;;;;10.88;2.58;;;;;;;8.49;100.00;99873.38;5072454;28;20090;-60
2023/04/13 09:19:34;;;;;;;14.23;2.30;;;;;;;8.58;100.00;99883.22;5072919;28;20048;-60
2023/04/13 09:22:14;;;;;;;9.13;1.83;;;;;;;8.68;100.00;99883.38;5072544;28;20048;-60
2023/04/13 09:24:44;;;;;;;8.10;1.80;;;;;;;8.87;100.00;99903.84;5072659;28;20055;-60
2023/04/13 09:27:20;;;;;;;18.67;2.75;;;;;;;9.00;100.00;99901.19;5072132;28;20431;-60
2023/04/13 09:29:50;;;;;;;10.00;2.08;;;;;;;9.00;100.00;99906.44;5072118;28;20044;-60
2023/04/13 09:32:22;;;;;;;7.45;1.98;;;;;;;9.11;100.00;99911.72;5072567;28;20045;-60
2023/04/13 09:34:58;;;;;;;12.52;2.08;;;;;;;9.17;100.00;99920.91;5073112;28;20064;-60
2023/04/13 09:37:29;;;;;;;13.25;2.75;;;;;;;9.30;100.00;99931.34;5073223;28;20041;-60
2023/04/13 09:40:08;;;;;;;11.30;1.83;;;;;;;9.54;100.00;99930.47;5073243;28;20514;-60
2023/04/13 09:42:37;;;;;;;12.10;2.08;;;;;;;9.61;100.00;99929.03;5072280;28;20044;-60
2023/04/13 09:45:09;;;;;;;8.97;1.90;;;;;;;9.74;100.00;99932.41;5072672;28;20040;-60
2023/04/13 09:47:39;;;;;;;12.15;1.75;;;;;;;9.93;100.00;99950.22;5072625;28;20052;-60
2023/04/13 09:50:17;;;;;;;8.32;1.70;;;;;;;10.14;100.00;99960.88;5072445;28;20048;-60
2023/04/13 09:52:47;;;;;;;7.03;1.33;;;;;;;10.31;100.00;99959.56;5073074;28;20049;-60
2023/04/13 09:55:16;;;;;;;11.27;1.80;;;;;;;10.54;100.00;99969.25;5072812;28;20487;-60
2023/04/13 09:57:44;;;;;;;11.07;1.98;;;;;;;10.59;100.00;99973.22;5072363;28;20048;-60
2023/04/13 10:00:19;;;;;;;12.07;1.70;;;;;;;10.67;100.00;99967.34;5073147;28;20043;-60
2023/04/13 10:02:49;;;;;;;12.27;1.77;;;;;;;10.98;100.00;99965.72;5072011;28;20508;-56
2023/04/13 10:05:19;;;;;;;15.07;2.20;;;;;;;11.11;100.00;99972.59;5069524;28;20381;-56
2023/04/13 10:07:50;;;;;;;11.30;1.95;;;;;;;11.25;100.00;99974.13;5069811;28;20056;-56
2023/04/13 10:10:18;;;;;;;10.82;2.00;;;;;;;11.37;100.00;99978.41;5069026;28;20060;-56
2023/04/13 10:12:53;;;;;;;11.00;1.98;;;;;;;11.54;100.00;99966.44;5069694;28;20507;-57
2023/04/13 10:15:38;;;;;;;10.18;2.20;;;;;;;11.77;100.00;99971.59;5071770;28;20045;-57
2023/04/13 10:18:24;;;;;;;8.95;1.90;;;;;;;12.11;100.00;99981.97;5069661;28;20036;-57
2023/04/13 10:20:54;;;;;;;9.15;1.65;;;;;;;12.10;100.00;99982.91;5071426;28;20098;-56
2023/04/13 10:23:26;;;;;;;16.08;2.47;;;;;;;12.13;100.00;99991.41;5072276;28;20071;-56
2023/04/13 10:25:56;;;;;;;9.57;1.70;;;;;;;12.23;100.00;99996.72;5068834;28;20078;-57
2023/04/13 10:28:27;;;;;;;9.88;1.90;;;;;;;12.24;100.00;99998.38;5070763;28;20053;-56
2023/04/13 10:30:55;;;;;;;14.90;2.05;;;;;;;12.56;100.00;100000.06;5070426;28;20048;-57
2023/04/13 10:33:24;;;;;;;11.63;2.00;;;;;;;12.61;100.00;99997.00;5069612;28;20057;-57
2023/04/13 10:35:57;;;;;;;12.80;1.90;;;;;;;12.52;100.00;100002.13;5068113;28;20098;-57
2023/04/13 10:38:27;;;;;;;8.95;1.70;;;;;;;12.30;100.00;100004.94;5070415;28;20082;-56
2023/04/13 10:40:55;;;;;;;13.68;2.85;;;;;;;12.27;100.00;100013.94;5069591;28;20045;-57
2023/04/13 10:43:29;;;;;;;10.75;2.00;;;;;;;11.97;100.00;100025.28;5069132;28;20037;-55
2023/04/13 10:46:08;;;;;;;8.38;1.92;;;;;;;11.40;100.00;100027.31;5071171;28;20056;-55
2023/04/13 10:48:37;;;;;;;9.77;2.65;;;;;;;11.39;100.00;100023.03;5072083;28;20032;-57
2023/04/13 10:51:05;;;;;;;9.30;1.85;;;;;;;11.29;100.00;100036.94;5072523;28;20048;-58
2023/04/13 10:53:34;;;;;;;11.15;1.83;;;;;;;11.48;100.00;100038.91;5072225;28;20663;-55
2023/04/13 10:56:04;;;;;;;9.65;1.80;;;;;;;11.56;100.00;100040.91;5072470;28;20514;-55
2023/04/13 10:58:33;;;;;;;13.77;2.00;;;;;;;11.26;100.00;100039.81;5072373;28;20139;-54
2023/04/13 11:01:02;;;;;;;10.05;1.92;;;;;;;11.37;100.00;100035.47;5072765;28;20040;-56
2023/04/13 11:03:32;;;;;;;11.45;1.80;;;;;;;11.58;100.00;100043.41;5075126;28;20064;-57
2023/04/13 11:06:01;;;;;;;9.68;1.77;;;;;;;11.32;100.00;100049.81;5072810;28;20053;-56
2023/04/13 11:08:29;;;;;;;15.38;2.38;;;;;;;11.12;100.00;100067.22;5074817;28;20062;-57
2023/04/13 11:10:59;;;;;;;10.07;1.52;;;;;;;10.90;100.00;100081.25;5075856;28;20444;-57
2023/04/13 11:13:27;;;;;;;8.75;1.38;;;;;;;10.49;100.00;100072.16;5075360;28;20102;-56
2023/04/13 11:16:06;;;;;;;9.15;1.63;;;;;;;10.56;100.00;100072.53;5072308;28;20071;-55
2023/04/13 11:18:34;;;;;;;14.13;2.20;;;;;;;10.65;100.00;100082.34;5074161;28;20416;-55
2023/04/13 11:21:03;;;;;;;11.50;1.77;;;;;;;10.93;100.00;100078.34;5073328;28;20507;-55
2023/04/13 11:23:36;;;;;;;10.13;1.80;;;;;;;10.75;100.00;100087.72;5072954;28;20068;-56
2023/04/13 11:26:05;;;;;;;9.23;1.70;;;;;;;10.79;100.00;100094.41;5074833;28;20048;-56
2023/04/13 11:28:38;;;;;;;8.40;1.70;;;;;;;10.64;100.00;100097.25;5072674;28;20045;-55
2023/04/13 11:31:07;;;;;;;8.68;1.73;;;;;;;10.72;100.00;100101.94;5073145;28;20048;-57
2023/04/13 11:33:35;;;;;;;9.80;1.77;;;;;;;10.98;100.00;100105.16;5075565;28;20072;-56
2023/04/13 11:36:08;;;;;;;9.25;1.77;;;;;;;11.07;100.00;100097.50;5075630;28;20377;-57
2023/04/13 11:38:39;;;;;;;8.60;1.65;;;;;;;11.48;100.00;100099.44;5072993;28;20098;-56
2023/04/13 11:41:09;;;;;;;8.73;1.52;;;;;;;11.52;100.00;100107.97;5072234;28;20435;-57